Weather History for Pontiac, IL

Change the Weather History Date:

Friday, February 14, 2014

  Actual Average Record
Temperature  
Mean Temperature 11 °F -  
Max Temperature 19 °F 35 °F 65 °F (1918)
Min Temperature 3 °F 20 °F -12 °F (1905)
Degree Days  
Heating Degree Days 54    
Moisture  
Dew Point 8 °F    
Average Humidity 80    
Maximum Humidity 92    
Minimum Humidity 73    
Precipitation  
Precipitation 0.00 in - - ()
Sea Level Pressure  
Sea Level Pressure 29.80 in    
Wind  
Wind Speed 11 mph (WNW)    
Max Wind Speed 18 mph    
Max Gust Speed 21 mph    
Visibility 9 miles    
Events Snow    
Averages and records for this station are not official NWS values.
T = Trace of Precipitation, MM = Missing Value Source: NWS Daily Summary

Daily Weather History Graph

Daily Weather History Graph

Search for Another Location

Airport:

Trip Planner

Search our weather history database for the weather conditions in past years. The results will help you decide how hot, cold, wet, or windy it might be!

Date:

Astronomy

Feb. 14, 2014 Rise Set
Actual Time 6:49 AM CST 5:27 PM CST
Civil Twilight 6:21 AM CST 5:56 PM CST
Nautical Twilight 5:49 AM CST 6:28 PM CST
Astronomical Twilight 5:17 AM CST 7:00 PM CST
Moon 5:31 PM CST (2/14) 6:16 AM CST (2/14)
Length of Visible Light 11h 34m
Length of Day
10h 37m
Full, 100% of the Moon is Illuminated
Feb 14
Full
Feb 14
Full
Feb 22
Last Quarter
Mar 1
New
Mar 8
First Quarter

Hourly Weather History & Observations

Time (CST) Temp. Windchill Dew Point Humidity Pressure Visibility Wind Dir Wind Speed Gust Speed Precip Events Conditions
12:15 AM 17.6 °F 5.0 °F 12.2 °F 79% 29.67 in 10.0 mi WNW 11.5 mph - N/A   Clear
12:35 AM 15.8 °F 1.4 °F 10.4 °F 79% 29.68 in 10.0 mi West 13.8 mph - N/A   Clear
12:55 AM 17.6 °F 1.7 °F 10.4 °F 73% 29.69 in 10.0 mi WNW 18.4 mph - N/A   Clear
1:15 AM 15.8 °F -0.6 °F 10.4 °F 79% 29.69 in 10.0 mi WNW 18.4 mph - N/A   Clear
1:35 AM 15.8 °F 2.1 °F 10.4 °F 79% 29.70 in 10.0 mi West 12.7 mph - N/A   Clear
1:55 AM 15.8 °F 2.7 °F 8.6 °F 73% 29.70 in 10.0 mi WNW 11.5 mph - N/A   Clear
2:15 AM 12.2 °F -1.8 °F 8.6 °F 85% 29.70 in 10.0 mi WNW 11.5 mph - N/A   Clear
2:35 AM 12.2 °F -3.1 °F 8.6 °F 85% 29.70 in 10.0 mi West 13.8 mph - N/A   Clear
2:55 AM 12.2 °F -1.8 °F 8.6 °F 85% 29.71 in 10.0 mi WNW 11.5 mph - N/A   Clear
3:15 AM 12.2 °F -1.0 °F 6.8 °F 79% 29.70 in 10.0 mi West 10.4 mph - N/A   Clear
3:35 AM 10.4 °F -2.4 °F 6.8 °F 85% 29.70 in 10.0 mi West 9.2 mph - N/A   Clear
3:55 AM 8.6 °F -5.5 °F 5.0 °F 85% 29.70 in 10.0 mi WNW 10.4 mph - N/A   Clear
4:15 AM 8.6 °F -3.7 °F 5.0 °F 85% 29.71 in 10.0 mi WNW 8.1 mph - N/A   Clear
4:35 AM 10.4 °F -0.4 °F 6.8 °F 85% 29.71 in 10.0 mi WNW 6.9 mph - N/A   Clear
4:55 AM 10.4 °F 0.8 °F 6.8 °F 85% 29.71 in 10.0 mi NW 5.8 mph - N/A   Clear
5:15 AM 10.4 °F -1.5 °F 6.8 °F 85% 29.72 in 10.0 mi WNW 8.1 mph - N/A   Scattered Clouds
5:35 AM 12.2 °F 0.7 °F 6.8 °F 79% 29.71 in 10.0 mi WNW 8.1 mph - N/A   Scattered Clouds
5:55 AM 10.4 °F -1.5 °F 6.8 °F 85% 29.73 in 10.0 mi NW 8.1 mph - N/A   Clear
6:15 AM 10.4 °F 0.8 °F 6.8 °F 85% 29.73 in 10.0 mi WNW 5.8 mph - N/A   Clear
6:35 AM 12.2 °F 0.7 °F 6.8 °F 79% 29.73 in 10.0 mi WNW 8.1 mph - N/A   Scattered Clouds
6:55 AM 12.2 °F 0.7 °F 6.8 °F 79% 29.74 in 10.0 mi WNW 8.1 mph - N/A   Mostly Cloudy
7:15 AM 12.2 °F -0.2 °F 8.6 °F 85% 29.74 in 10.0 mi West 9.2 mph - N/A   Scattered Clouds
7:35 AM 12.2 °F -1.8 °F 8.6 °F 85% 29.75 in 10.0 mi West 11.5 mph - N/A   Clear
7:55 AM 14.0 °F 2.0 °F 8.6 °F 79% 29.76 in 10.0 mi West 9.2 mph - N/A   Clear
8:15 AM 15.8 °F 7.2 °F 10.4 °F 79% 29.77 in 10.0 mi West 5.8 mph - N/A   Clear
8:35 AM 15.8 °F 7.2 °F 10.4 °F 79% 29.76 in 10.0 mi WNW 5.8 mph - N/A   Clear
8:55 AM 15.8 °F 8.6 °F 10.4 °F 79% 29.76 in 10.0 mi WNW 4.6 mph - N/A   Clear
9:15 AM 15.8 °F 8.6 °F 10.4 °F 79% 29.76 in 10.0 mi NW 4.6 mph - N/A   Clear
9:35 AM 15.8 °F 7.2 °F 10.4 °F 79% 29.76 in 10.0 mi NW 5.8 mph - N/A   Clear
9:55 AM 15.8 °F 7.2 °F 10.4 °F 79% 29.76 in 10.0 mi NW 5.8 mph - N/A   Clear
10:15 AM 17.6 °F 9.3 °F 10.4 °F 73% 29.78 in 7.0 mi WNW 5.8 mph - N/A   Clear
10:35 AM 15.8 °F 7.2 °F 12.2 °F 86% 29.78 in 0.8 mi NW 5.8 mph - N/A Snow Light Snow
10:55 AM 15.8 °F 5.1 °F 12.2 °F 86% 29.78 in 0.5 mi NNW 8.1 mph - N/A Snow Light Snow
11:15 AM 15.8 °F 6.1 °F 12.2 °F 86% 29.78 in 0.5 mi NW 6.9 mph - N/A Snow Light Snow
11:35 AM 17.6 °F 7.3 °F 12.2 °F 79% 29.78 in 1.0 mi NW 8.1 mph - N/A Snow Light Snow
11:55 AM 17.6 °F 7.3 °F 12.2 °F 79% 29.77 in 2.0 mi NW 8.1 mph - N/A Snow Light Snow
12:15 PM 17.6 °F 5.7 °F 12.2 °F 79% 29.76 in 1.8 mi NNW 10.4 mph - N/A Snow Light Snow
12:35 PM 17.6 °F 4.3 °F 12.2 °F 79% 29.76 in 3.0 mi NW 12.7 mph - N/A Snow Light Snow
12:55 PM 17.6 °F 4.3 °F 12.2 °F 79% 29.76 in 5.0 mi NW 12.7 mph - N/A Snow Light Snow
1:15 PM 17.6 °F 3.7 °F 12.2 °F 79% 29.75 in 5.0 mi NNW 13.8 mph - N/A Snow Light Snow
1:35 PM 19.4 °F 5.0 °F 12.2 °F 74% 29.75 in 10.0 mi NNW 16.1 mph - N/A   Clear
1:55 PM 19.4 °F 5.5 °F 12.2 °F 74% 29.74 in 10.0 mi NNW 15.0 mph 20.7 mph N/A   Scattered Clouds
2:15 PM 19.4 °F 6.0 °F 12.2 °F 74% 29.76 in 10.0 mi NNW 13.8 mph - N/A   Scattered Clouds
2:35 PM 19.4 °F 5.5 °F 12.2 °F 74% 29.77 in 10.0 mi NNW 15.0 mph - N/A   Scattered Clouds
2:55 PM 19.4 °F 5.5 °F 12.2 °F 74% 29.77 in 10.0 mi NNW 15.0 mph - N/A   Scattered Clouds
3:15 PM 19.4 °F 5.5 °F 12.2 °F 74% 29.78 in 10.0 mi NNW 15.0 mph - N/A   Clear
3:35 PM 19.4 °F 6.0 °F 12.2 °F 74% 29.80 in 10.0 mi NNW 13.8 mph - N/A   Scattered Clouds
3:55 PM 17.6 °F 3.2 °F 12.2 °F 79% 29.80 in 10.0 mi NW 15.0 mph - N/A   Clear
4:15 PM 17.6 °F 4.3 °F 10.4 °F 73% 29.81 in 10.0 mi NW 12.7 mph - N/A   Clear
4:35 PM 17.6 °F 4.3 °F 10.4 °F 73% 29.82 in 10.0 mi NW 12.7 mph - N/A   Clear
4:55 PM 17.6 °F 3.2 °F 10.4 °F 73% 29.83 in 10.0 mi NNW 15.0 mph - N/A   Clear
5:15 PM 15.8 °F 2.7 °F 10.4 °F 79% 29.85 in 10.0 mi NW 11.5 mph - N/A   Clear
5:35 PM 15.8 °F 2.7 °F 8.6 °F 73% 29.86 in 10.0 mi NNW 11.5 mph - N/A   Clear
5:55 PM 14.0 °F 2.0 °F 8.6 °F 79% 29.87 in 10.0 mi NW 9.2 mph - N/A   Clear
6:15 PM 12.2 °F 1.7 °F 6.8 °F 79% 29.88 in 10.0 mi NW 6.9 mph - N/A   Clear
6:35 PM 12.2 °F 4.3 °F 6.8 °F 79% 29.89 in 10.0 mi NW 4.6 mph - N/A   Clear
6:55 PM 12.2 °F 1.7 °F 6.8 °F 79% 29.90 in 10.0 mi NW 6.9 mph - N/A   Clear
7:15 PM 10.4 °F 0.8 °F 6.8 °F 85% 29.91 in 10.0 mi NW 5.8 mph - N/A   Clear
7:35 PM 12.2 °F 1.7 °F 6.8 °F 79% 29.92 in 10.0 mi WNW 6.9 mph - N/A   Clear
7:55 PM 12.2 °F 1.7 °F 6.8 °F 79% 29.93 in 10.0 mi WNW 6.9 mph - N/A   Clear
8:15 PM 10.4 °F -0.4 °F 3.2 °F 73% 29.94 in 10.0 mi WNW 6.9 mph - N/A   Clear
8:35 PM 8.6 °F -3.7 °F 3.2 °F 79% 29.94 in 10.0 mi WNW 8.1 mph - N/A   Clear
8:55 PM 8.6 °F -3.7 °F 3.2 °F 79% 29.94 in 10.0 mi WNW 8.1 mph - N/A   Clear
9:15 PM 6.8 °F -4.8 °F 3.2 °F 85% 29.96 in 10.0 mi West 6.9 mph - N/A   Clear
9:35 PM 5.0 °F -5.6 °F 1.4 °F 85% 29.96 in 10.0 mi West 5.8 mph - N/A   Clear
9:55 PM 5.0 °F -5.6 °F 1.4 °F 85% 29.96 in 10.0 mi West 5.8 mph - N/A   Clear
10:15 PM 3.2 °F -10.3 °F -0.4 °F 85% 29.97 in 10.0 mi WNW 8.1 mph - N/A   Clear
10:35 PM 5.0 °F -10.0 °F 1.4 °F 85% 29.97 in 10.0 mi WNW 10.4 mph - N/A   Clear
10:55 PM 3.2 °F -10.3 °F -0.4 °F 85% 29.98 in 10.0 mi WNW 8.1 mph - N/A   Clear
11:15 PM 3.2 °F -13.1 °F 1.4 °F 92% 29.98 in 10.0 mi WNW 11.5 mph - N/A   Clear
11:35 PM 3.2 °F -12.2 °F -0.4 °F 85% 29.98 in 10.0 mi WNW 10.4 mph - N/A   Clear
11:55 PM 6.8 °F -8.6 °F 1.4 °F 79% 29.98 in 10.0 mi WNW 11.5 mph - N/A   Clear